Main page
METAR-TAF:

METAR-TAF

Airports :

Olney-Noble Airport

Olney-Noble, Illinois, United States

latitude: 38-43-19N, longitude: 088-10-35W, elevation: 482 ft

Current weather observation

The report was made 12 minutes ago, at 21:55 UTC
Wind 5 mph from the East
Temperature 55°F
Humidity 44%
Pressure 30.07 in. Hg
Visibility: 10 miles
Overcast at a height of 4700 ft

METAR: KOLY 012155Z AUTO 09004KT 10SM OVC047 13/01 A3007 RMK AO2 T01320014

Time: 17:07 (22:07 UTC)


TAF: missing

Weather observations and forecasts of more than 4000 airports (METAR and TAF reports).

The available stations are represented by yellow and red dots on the map.

Hover mouse over dot to see the name of the station.

Then click to see weather observations and forecasts.

To change the map : click on the green buttons with a black cross to zoom in, on the green button with a dash to zoom out, or on the green arrows for adjacent maps.


METAR-TAF: